createdAt,value
2018-02-14T00:00:29.256Z,13.90
2018-02-14T00:03:07.678Z,6.47
2018-02-14T00:05:49.362Z,10.87
2018-02-14T00:08:27.805Z,6.57
2018-02-14T00:11:06.405Z,6.73
2018-02-14T00:13:44.677Z,6.03
2018-02-14T00:16:24.264Z,6.27
2018-02-14T00:19:02.684Z,7.63
2018-02-14T00:21:41.126Z,11.63
2018-02-14T00:24:19.565Z,6.27
2018-02-14T00:26:58.255Z,8.10
2018-02-14T00:29:36.667Z,8.73
2018-02-14T00:32:15.290Z,9.60
2018-02-14T00:34:53.883Z,5.57
2018-02-14T00:37:32.434Z,4.50
2018-02-14T00:40:11.070Z,10.63
2018-02-14T00:42:49.631Z,4.87
2018-02-14T00:45:28.173Z,5.93
2018-02-14T00:48:09.219Z,7.80
2018-02-14T00:50:48.175Z,10.03
2018-02-14T00:53:26.710Z,4.10
2018-02-14T00:56:05.218Z,9.30
2018-02-14T00:58:43.785Z,11.35
2018-02-14T01:01:23.301Z,5.73
2018-02-14T01:04:03.769Z,6.23
2018-02-14T01:06:42.248Z,4.50
2018-02-14T01:09:20.707Z,5.25
2018-02-14T01:11:59.300Z,5.63
2018-02-14T01:14:37.770Z,5.77
2018-02-14T01:17:17.233Z,5.80
2018-02-14T01:20:01.735Z,7.10
2018-02-14T01:22:40.253Z,16.62
2018-02-14T01:25:18.695Z,10.15
2018-02-14T01:27:57.064Z,8.25
2018-02-14T01:30:36.545Z,11.93
2018-02-14T01:33:18.517Z,11.70
2018-02-14T01:35:56.853Z,6.35
2018-02-14T01:38:35.350Z,8.23
2018-02-14T01:41:13.900Z,9.52
2018-02-14T01:43:53.006Z,9.30
2018-02-14T01:46:32.009Z,7.82
2018-02-14T01:49:10.546Z,6.62
2018-02-14T01:51:50.942Z,11.12
2018-02-14T01:54:29.856Z,22.60
2018-02-14T01:57:07.864Z,13.88
2018-02-14T01:59:47.357Z,16.77
2018-02-14T02:02:26.073Z,16.12
2018-02-14T02:05:04.758Z,17.37
2018-02-14T02:07:45.213Z,14.82
2018-02-14T02:10:24.791Z,93.70
2018-02-14T02:13:03.248Z,55.42
2018-02-14T02:15:42.632Z,13.35
2018-02-14T02:18:22.975Z,88.78
2018-02-14T02:21:03.405Z,47.75
2018-02-14T02:23:42.133Z,14.00
2018-02-14T02:26:20.589Z,12.35
2018-02-14T02:29:01.150Z,11.80
2018-02-14T02:31:41.546Z,10.70
2018-02-14T02:34:21.762Z,13.35
2018-02-14T02:37:00.724Z,18.73
2018-02-14T02:39:51.381Z,13.50
2018-02-14T02:42:30.759Z,23.70
2018-02-14T02:45:09.194Z,21.23
2018-02-14T02:47:48.771Z,33.70
2018-02-14T02:50:28.535Z,29.77
2018-02-14T02:53:06.961Z,37.05
2018-02-14T02:55:45.347Z,26.73
2018-02-14T02:58:23.828Z,12.70
2018-02-14T03:01:01.395Z,22.23
2018-02-14T03:03:39.791Z,12.73
2018-02-14T03:06:18.402Z,16.27
2018-02-14T03:08:58.644Z,14.50
2018-02-14T03:11:38.408Z,12.50
2018-02-14T03:14:17.743Z,13.07
2018-02-14T03:16:57.349Z,12.30
2018-02-14T03:19:36.618Z,14.10
2018-02-14T03:22:15.248Z,12.70
2018-02-14T03:24:53.975Z,12.37
2018-02-14T03:27:34.568Z,13.13
2018-02-14T03:30:13.122Z,10.80
2018-02-14T03:32:51.737Z,16.85
2018-02-14T03:35:30.316Z,11.38
2018-02-14T03:38:08.707Z,12.80
2018-02-14T03:40:47.502Z,9.30
2018-02-14T03:43:26.040Z,16.10
2018-02-14T03:46:04.642Z,14.52
2018-02-14T03:48:41.036Z,14.98
2018-02-14T03:51:21.481Z,12.88
2018-02-14T03:54:00.041Z,15.10
2018-02-14T03:56:39.498Z,12.40
2018-02-14T03:59:17.928Z,11.70
2018-02-14T04:01:56.454Z,16.33
2018-02-14T04:04:34.954Z,13.05
2018-02-14T04:07:13.640Z,14.30
2018-02-14T04:09:52.141Z,17.48
2018-02-14T04:12:30.756Z,13.35
2018-02-14T04:15:10.288Z,18.20
2018-02-14T04:17:48.921Z,14.48
2018-02-14T04:20:27.597Z,19.67
2018-02-14T04:23:06.267Z,14.87
2018-02-14T04:25:47.047Z,13.93
2018-02-14T04:28:27.616Z,16.62
2018-02-14T04:31:06.338Z,15.82
2018-02-14T04:33:45.908Z,17.02
2018-02-14T04:36:26.426Z,26.15
2018-02-14T04:39:05.202Z,21.98
2018-02-14T04:41:43.746Z,21.37
2018-02-14T04:44:24.137Z,33.05
2018-02-14T04:47:02.792Z,174.98
2018-02-14T04:49:41.415Z,91.65
2018-02-14T04:52:19.968Z,39.05
2018-02-14T04:55:00.652Z,27.92
2018-02-14T04:57:39.354Z,27.20
2018-02-14T05:00:18.837Z,28.58
2018-02-14T05:02:57.561Z,23.23
2018-02-14T05:05:37.110Z,33.65
2018-02-14T05:08:15.656Z,42.10
2018-02-14T05:10:56.194Z,39.22
2018-02-14T05:13:35.917Z,34.42
2018-02-14T05:16:15.624Z,26.52
2018-02-14T05:18:53.526Z,30.48
2018-02-14T05:21:32.108Z,25.98
2018-02-14T05:24:10.936Z,45.80
2018-02-14T05:26:49.430Z,28.10
2018-02-14T05:29:30.121Z,29.10
2018-02-14T05:32:08.595Z,33.97
2018-02-14T05:34:47.253Z,32.28
2018-02-14T05:37:25.646Z,37.50
2018-02-14T05:40:03.286Z,35.78
2018-02-14T05:42:41.863Z,37.65
2018-02-14T05:45:21.609Z,35.92
2018-02-14T05:48:04.027Z,32.60
2018-02-14T05:50:42.378Z,32.40
2018-02-14T05:53:20.949Z,29.37
2018-02-14T05:56:00.464Z,28.77
2018-02-14T05:58:39.090Z,29.02
2018-02-14T06:01:17.657Z,23.70
2018-02-14T06:03:56.170Z,24.00
2018-02-14T06:06:35.596Z,22.45
2018-02-14T06:09:15.025Z,26.67
2018-02-14T06:11:56.361Z,30.55
2018-02-14T06:14:35.013Z,34.10
2018-02-14T06:17:13.745Z,27.20
2018-02-14T06:19:55.232Z,28.48
2018-02-14T06:22:36.069Z,28.67
2018-02-14T06:25:15.617Z,29.17
2018-02-14T06:27:54.333Z,25.83
2018-02-14T06:30:32.940Z,28.60
2018-02-14T06:33:11.442Z,22.02
2018-02-14T06:35:49.983Z,25.62
2018-02-14T06:38:28.560Z,27.05
2018-02-14T06:41:06.996Z,24.80
2018-02-14T06:43:46.651Z,21.92
2018-02-14T06:46:25.157Z,25.88
2018-02-14T06:49:03.847Z,32.25
2018-02-14T06:51:42.302Z,31.08
2018-02-14T06:54:20.968Z,30.75
2018-02-14T06:57:00.735Z,23.95
2018-02-14T06:59:39.166Z,25.00
2018-02-14T07:02:17.792Z,22.98
2018-02-14T07:04:56.347Z,21.92
2018-02-14T07:07:35.792Z,26.60
2018-02-14T07:10:16.464Z,20.37
2018-02-14T07:12:55.223Z,21.42
2018-02-14T07:15:33.632Z,20.25
2018-02-14T07:18:12.150Z,16.10
2018-02-14T07:20:50.746Z,23.27
2018-02-14T07:23:34.158Z,24.70
2018-02-14T07:26:12.836Z,20.17
2018-02-14T07:28:54.587Z,20.27
2018-02-14T07:31:35.193Z,23.25
2018-02-14T07:34:14.053Z,22.05
2018-02-14T07:36:52.941Z,25.70
2018-02-14T07:39:31.433Z,26.17
2018-02-14T07:42:11.292Z,25.85
2018-02-14T07:44:51.158Z,13.70
2018-02-14T07:47:29.825Z,19.95
2018-02-14T07:50:09.491Z,27.52
2018-02-14T07:52:48.069Z,24.87
2018-02-14T07:55:28.500Z,18.08
2018-02-14T07:58:06.923Z,24.85
2018-02-14T08:00:46.456Z,19.98
2018-02-14T08:03:24.848Z,19.30
2018-02-14T08:06:03.383Z,14.25
2018-02-14T08:08:42.153Z,13.50
2018-02-14T08:11:22.960Z,15.50
2018-02-14T08:14:01.260Z,15.88
2018-02-14T08:16:39.962Z,13.95
2018-02-14T08:19:17.630Z,16.02
2018-02-14T08:21:56.098Z,13.98
2018-02-14T08:24:35.777Z,13.43
2018-02-14T08:27:14.373Z,18.62
2018-02-14T08:29:53.948Z,15.75
2018-02-14T08:32:32.652Z,14.00
2018-02-14T08:35:12.211Z,29.58
2018-02-14T08:37:50.848Z,18.45
2018-02-14T08:40:28.479Z,14.77
2018-02-14T08:43:06.793Z,19.10
2018-02-14T08:45:46.176Z,14.05
2018-02-14T08:48:24.780Z,13.50
2018-02-14T08:51:03.385Z,19.73
2018-02-14T08:53:44.003Z,25.08
2018-02-14T08:56:23.724Z,23.42
2018-02-14T08:59:02.245Z,21.62
2018-02-14T09:01:39.706Z,23.62
2018-02-14T09:04:16.988Z,28.23
2018-02-14T09:06:55.189Z,18.33
2018-02-14T09:09:33.841Z,19.10
2018-02-14T09:12:13.574Z,16.17
2018-02-14T09:14:52.180Z,16.98
2018-02-14T09:17:30.891Z,14.93
2018-02-14T09:20:11.573Z,14.57
2018-02-14T09:22:50.349Z,18.65
2018-02-14T09:25:27.893Z,16.20
2018-02-14T09:28:06.363Z,16.37
2018-02-14T09:30:46.063Z,14.43
2018-02-14T09:33:24.646Z,11.63
2018-02-14T09:36:03.584Z,20.95
2018-02-14T09:38:42.162Z,21.17
2018-02-14T09:41:20.610Z,11.43
2018-02-14T09:43:59.090Z,11.68
2018-02-14T09:46:36.483Z,11.95
2018-02-14T09:49:16.128Z,12.18
2018-02-14T09:51:53.108Z,13.27
2018-02-14T09:54:32.346Z,13.43
2018-02-14T09:57:10.707Z,13.15
2018-02-14T09:59:50.335Z,15.68
2018-02-14T10:02:29.067Z,14.65
2018-02-14T10:05:08.746Z,15.15
2018-02-14T10:07:47.507Z,20.12
2018-02-14T10:10:26.062Z,15.55
2018-02-14T10:13:05.586Z,14.32
2018-02-14T10:15:42.996Z,14.20
2018-02-14T10:18:21.688Z,15.82
2018-02-14T10:21:00.925Z,15.65
2018-02-14T10:23:39.734Z,16.65
2018-02-14T10:26:18.504Z,19.98
2018-02-14T10:28:57.328Z,14.68
2018-02-14T10:31:36.854Z,15.80
2018-02-14T10:34:16.317Z,20.98
2018-02-14T10:36:54.925Z,18.92
2018-02-14T10:39:34.671Z,17.75
2018-02-14T10:42:14.112Z,20.77
2018-02-14T10:44:53.702Z,18.73
2018-02-14T10:47:32.357Z,20.52
2018-02-14T10:50:11.840Z,18.20
2018-02-14T10:52:50.651Z,23.70
2018-02-14T10:55:29.096Z,26.42
2018-02-14T10:58:07.569Z,19.40
2018-02-14T11:00:52.003Z,26.37
2018-02-14T11:03:37.654Z,28.35
2018-02-14T11:06:16.253Z,31.25
2018-02-14T11:08:55.046Z,25.90
2018-02-14T11:11:35.602Z,22.27
2018-02-14T11:14:16.028Z,19.95
2018-02-14T11:16:55.770Z,18.92
2018-02-14T11:19:35.444Z,22.02
2018-02-14T11:22:15.139Z,22.17
2018-02-14T11:24:53.663Z,18.52
2018-02-14T11:27:32.266Z,20.27
2018-02-14T11:30:11.920Z,17.85
2018-02-14T11:32:51.553Z,16.33
2018-02-14T11:35:31.088Z,22.15
2018-02-14T11:38:10.702Z,18.87
2018-02-14T11:40:49.155Z,20.35
2018-02-14T11:43:27.837Z,25.50
2018-02-14T11:46:06.249Z,19.67
2018-02-14T11:48:44.853Z,20.40
2018-02-14T11:51:24.284Z,20.90
2018-02-14T11:54:03.758Z,22.33
2018-02-14T11:56:42.554Z,25.52
2018-02-14T11:59:22.111Z,24.48
2018-02-14T12:01:59.648Z,22.70
2018-02-14T12:04:38.172Z,25.70
2018-02-14T12:07:21.753Z,24.33
2018-02-14T12:09:59.239Z,25.80
2018-02-14T12:12:36.880Z,24.30
2018-02-14T12:15:15.364Z,26.33
2018-02-14T12:17:54.934Z,24.27
2018-02-14T12:20:33.748Z,26.55
2018-02-14T12:23:12.089Z,26.00
2018-02-14T12:25:51.345Z,26.23
2018-02-14T12:28:29.369Z,24.20
2018-02-14T12:31:07.990Z,25.80
2018-02-14T12:33:47.524Z,20.37
2018-02-14T12:36:25.918Z,24.63
2018-02-14T12:39:04.320Z,18.90
2018-02-14T12:41:43.049Z,20.40
2018-02-14T12:44:22.656Z,18.83
2018-02-14T12:47:01.359Z,12.85
2018-02-14T12:49:39.869Z,15.07
2018-02-14T12:52:18.518Z,22.23
2018-02-14T12:54:56.937Z,20.25
2018-02-14T12:57:37.323Z,14.23
2018-02-14T13:00:14.994Z,11.43
2018-02-14T13:02:53.642Z,11.07
2018-02-14T13:05:33.507Z,11.77
2018-02-14T13:08:11.834Z,12.40
2018-02-14T13:10:50.332Z,11.60
2018-02-14T13:13:30.692Z,9.55
2018-02-14T13:16:08.278Z,11.35
2018-02-14T13:18:47.914Z,9.23
2018-02-14T13:21:27.615Z,11.65
2018-02-14T13:24:05.963Z,6.97
2018-02-14T13:26:45.512Z,8.07
2018-02-14T13:29:24.962Z,6.85
2018-02-14T13:32:03.496Z,7.45
2018-02-14T13:34:43.194Z,10.05
2018-02-14T13:37:21.832Z,8.05
2018-02-14T13:40:00.457Z,7.57
2018-02-14T13:42:38.984Z,8.13
2018-02-14T13:45:17.490Z,7.40
2018-02-14T13:47:56.212Z,11.12
2018-02-14T13:50:35.746Z,7.07
2018-02-14T13:53:14.431Z,6.80
2018-02-14T13:55:55.888Z,7.22
2018-02-14T13:58:34.554Z,5.50
2018-02-14T14:01:13.092Z,6.45
2018-02-14T14:03:51.870Z,5.32
2018-02-14T14:06:31.334Z,5.93
2018-02-14T14:09:10.146Z,7.82
2018-02-14T14:11:48.915Z,5.60
2018-02-14T14:14:27.211Z,6.45
2018-02-14T14:17:05.653Z,6.70
2018-02-14T14:19:46.130Z,6.68
2018-02-14T14:22:23.703Z,5.37
2018-02-14T14:25:03.082Z,4.47
2018-02-14T14:27:42.698Z,5.10
2018-02-14T14:30:21.384Z,4.90
2018-02-14T14:33:00.973Z,4.55
2018-02-14T14:35:39.505Z,5.75
2018-02-14T14:38:19.240Z,4.37
2018-02-14T14:40:57.813Z,4.20
2018-02-14T14:43:36.501Z,4.53
2018-02-14T14:46:15.948Z,6.07
2018-02-14T14:48:54.687Z,4.25
2018-02-14T14:51:34.760Z,4.25
2018-02-14T14:54:12.941Z,4.43
2018-02-14T14:56:51.335Z,6.22
2018-02-14T14:59:30.104Z,4.32
2018-02-14T15:02:08.752Z,4.10
2018-02-14T15:04:47.324Z,3.10
2018-02-14T15:07:28.018Z,4.70
2018-02-14T15:10:07.638Z,4.37
2018-02-14T15:12:48.099Z,4.53
2018-02-14T15:15:26.813Z,4.60
2018-02-14T15:18:08.503Z,4.47
2018-02-14T15:20:49.043Z,4.28
2018-02-14T15:23:27.445Z,7.05
2018-02-14T15:26:08.050Z,4.97
2018-02-14T15:28:47.509Z,3.92
2018-02-14T15:31:26.800Z,4.55
2018-02-14T15:34:06.521Z,4.57
2018-02-14T15:36:45.679Z,5.03
2018-02-14T15:39:25.707Z,6.55
2018-02-14T15:42:04.167Z,5.68
2018-02-14T15:44:42.708Z,5.30
2018-02-14T15:47:21.364Z,7.60
2018-02-14T15:49:59.804Z,5.57
2018-02-14T15:52:38.235Z,5.00
2018-02-14T15:55:17.749Z,5.10
2018-02-14T15:57:57.443Z,5.03
2018-02-14T16:00:36.941Z,4.97
2018-02-14T16:03:16.353Z,6.50
2018-02-14T16:05:55.493Z,4.80
2018-02-14T16:08:34.314Z,4.18
2018-02-14T16:11:11.882Z,4.53
2018-02-14T16:13:50.295Z,4.72
2018-02-14T16:16:28.749Z,5.40
2018-02-14T16:19:08.348Z,5.65
2018-02-14T16:21:46.878Z,6.72
2018-02-14T16:24:25.322Z,4.30
2018-02-14T16:27:05.864Z,5.85
2018-02-14T16:29:44.642Z,5.97
2018-02-14T16:32:23.827Z,5.50
2018-02-14T16:35:02.106Z,4.80
2018-02-14T16:37:40.768Z,5.32
2018-02-14T16:40:20.391Z,6.03
2018-02-14T16:42:59.782Z,6.65
2018-02-14T16:45:38.236Z,3.60
2018-02-14T16:48:16.867Z,3.72
2018-02-14T16:50:56.369Z,4.15
2018-02-14T16:53:36.970Z,3.75
2018-02-14T16:56:16.477Z,5.05
2018-02-14T16:58:55.061Z,5.15
2018-02-14T17:01:33.529Z,4.82
2018-02-14T17:04:12.942Z,4.10
2018-02-14T17:06:52.509Z,4.62
2018-02-14T17:09:31.126Z,3.80
2018-02-14T17:12:12.515Z,3.65
2018-02-14T17:14:51.984Z,4.75
2018-02-14T17:17:31.658Z,6.07
2018-02-14T17:20:09.088Z,4.25
2018-02-14T17:22:48.496Z,3.70
2018-02-14T17:25:27.079Z,5.25
2018-02-14T17:28:06.829Z,4.85
2018-02-14T17:30:46.259Z,4.35
2018-02-14T17:33:26.740Z,4.65
2018-02-14T17:36:06.457Z,4.75
2018-02-14T17:38:45.052Z,6.10
2018-02-14T17:41:23.651Z,4.30
2018-02-14T17:44:02.008Z,4.22
2018-02-14T17:46:40.692Z,5.28
2018-02-14T17:49:19.300Z,3.95
2018-02-14T17:51:57.717Z,5.03
2018-02-14T17:54:36.223Z,4.62
2018-02-14T17:57:14.850Z,5.50
2018-02-14T17:59:54.715Z,4.30
2018-02-14T18:02:34.032Z,3.77
2018-02-14T18:05:14.634Z,11.07
2018-02-14T18:07:53.136Z,7.90
2018-02-14T18:10:31.653Z,9.03
2018-02-14T18:13:11.074Z,10.00
2018-02-14T18:15:50.006Z,11.20
2018-02-14T18:18:28.723Z,10.17
2018-02-14T18:21:06.379Z,9.97
2018-02-14T18:23:48.063Z,10.53
2018-02-14T18:26:27.611Z,7.83
2018-02-14T18:29:07.085Z,8.63
2018-02-14T18:31:45.404Z,9.07
2018-02-14T18:34:24.095Z,8.30
2018-02-14T18:37:02.544Z,8.40
2018-02-14T18:39:41.170Z,7.30
2018-02-14T18:42:20.639Z,8.80
2018-02-14T18:44:59.369Z,7.85
2018-02-14T18:47:38.927Z,7.28
2018-02-14T18:50:18.531Z,8.48
2018-02-14T18:52:57.126Z,11.73
2018-02-14T18:55:35.755Z,12.45
2018-02-14T18:58:14.362Z,11.45
2018-02-14T19:00:54.122Z,10.98
2018-02-14T19:03:32.716Z,12.02
2018-02-14T19:06:11.415Z,8.77
2018-02-14T19:08:51.091Z,10.95
2018-02-14T19:11:29.709Z,7.78
2018-02-14T19:14:08.099Z,10.15
2018-02-14T19:16:46.415Z,7.80
2018-02-14T19:19:24.856Z,6.50
2018-02-14T19:22:03.316Z,9.00
2018-02-14T19:24:42.880Z,9.83
2018-02-14T19:27:21.474Z,11.68
2018-02-14T19:30:01.311Z,12.27
2018-02-14T19:32:39.737Z,18.63
2018-02-14T19:35:19.335Z,13.30
2018-02-14T19:37:57.790Z,5.43
2018-02-14T19:40:36.368Z,6.30
2018-02-14T19:43:15.963Z,7.17
2018-02-14T19:45:54.489Z,9.20
2018-02-14T19:48:34.083Z,18.47
2018-02-14T19:51:12.654Z,14.73
2018-02-14T19:53:51.205Z,10.73
2018-02-14T19:56:29.775Z,7.73
2018-02-14T19:59:08.359Z,6.50
2018-02-14T20:01:48.003Z,9.77
2018-02-14T20:04:27.501Z,6.13
2018-02-14T20:07:06.154Z,7.67
2018-02-14T20:09:44.865Z,9.87
2018-02-14T20:12:20.969Z,6.60
2018-02-14T20:14:59.012Z,5.00
2018-02-14T20:17:37.536Z,6.30
2018-02-14T20:20:17.066Z,8.57
2018-02-14T20:22:57.520Z,6.80
2018-02-14T20:25:36.139Z,10.73
2018-02-14T20:28:15.703Z,7.00
2018-02-14T20:30:54.379Z,3.40
2018-02-14T20:33:33.011Z,7.20
2018-02-14T20:36:11.675Z,7.77
2018-02-14T20:38:50.198Z,7.00
2018-02-14T20:41:28.667Z,5.37
2018-02-14T20:44:09.182Z,7.70
2018-02-14T20:46:49.738Z,4.63
2018-02-14T20:49:30.370Z,5.53
2018-02-14T20:52:08.826Z,4.73
2018-02-14T20:54:47.344Z,6.77
2018-02-14T20:57:27.068Z,5.40
2018-02-14T21:00:05.505Z,5.67
2018-02-14T21:02:44.099Z,4.70
2018-02-14T21:05:22.531Z,4.40
2018-02-14T21:08:00.931Z,5.00
2018-02-14T21:10:39.501Z,5.90
2018-02-14T21:13:18.117Z,3.63
2018-02-14T21:15:56.726Z,4.80
2018-02-14T21:18:35.304Z,4.07
2018-02-14T21:21:14.111Z,2.80
2018-02-14T21:23:52.608Z,3.17
2018-02-14T21:26:31.193Z,3.50
2018-02-14T21:29:09.680Z,4.50
2018-02-14T21:31:48.203Z,3.60
2018-02-14T21:34:26.740Z,5.33
2018-02-14T21:37:05.325Z,4.90
2018-02-14T21:39:43.949Z,6.13
2018-02-14T21:42:23.469Z,7.50
2018-02-14T21:45:02.051Z,5.97
2018-02-14T21:47:40.517Z,4.60
2018-02-14T21:50:19.068Z,5.47
2018-02-14T21:52:57.525Z,5.47
2018-02-14T21:55:36.086Z,4.37
2018-02-14T21:58:14.519Z,9.00
2018-02-14T22:00:53.175Z,6.30
2018-02-14T22:03:31.647Z,4.37
2018-02-14T22:06:10.015Z,6.20
2018-02-14T22:08:48.587Z,4.57
2018-02-14T22:11:27.891Z,7.50
2018-02-14T22:14:07.267Z,6.53
2018-02-14T22:16:46.147Z,10.13
2018-02-14T22:19:24.674Z,11.03
2018-02-14T22:22:04.300Z,6.17
2018-02-14T22:24:42.891Z,8.23
2018-02-14T22:27:21.435Z,3.40
2018-02-14T22:29:59.019Z,3.83
2018-02-14T22:32:37.415Z,3.20
2018-02-14T22:35:15.893Z,4.87
2018-02-14T22:37:53.522Z,3.00
2018-02-14T22:40:32.002Z,3.17
2018-02-14T22:43:13.698Z,2.93
2018-02-14T22:45:54.028Z,6.37
2018-02-14T22:48:34.713Z,3.40
2018-02-14T22:51:13.266Z,4.00
2018-02-14T22:53:51.743Z,4.50
2018-02-14T22:56:30.199Z,8.65
2018-02-14T22:59:08.701Z,3.70
2018-02-14T23:01:48.252Z,8.00
2018-02-14T23:04:26.713Z,3.50
2018-02-14T23:07:05.585Z,5.90
2018-02-14T23:09:44.060Z,5.57
2018-02-14T23:12:22.570Z,7.75
2018-02-14T23:15:01.062Z,8.00
2018-02-14T23:17:38.468Z,4.35
2018-02-14T23:20:16.942Z,3.83
2018-02-14T23:22:55.408Z,10.55
2018-02-14T23:25:34.814Z,8.27
2018-02-14T23:28:13.368Z,4.10
2018-02-14T23:30:51.962Z,2.58
2018-02-14T23:33:32.499Z,5.47
2018-02-14T23:36:10.931Z,3.43
2018-02-14T23:38:50.320Z,3.90
2018-02-14T23:41:28.872Z,1.90
2018-02-14T23:44:08.501Z,4.90
2018-02-14T23:46:47.134Z,1.35
2018-02-14T23:49:25.789Z,7.30
2018-02-14T23:52:04.173Z,7.35
2018-02-14T23:54:42.693Z,3.08
2018-02-14T23:57:21.158Z,3.15
2018-02-14T23:59:59.600Z,3.60
